sensor_id;sensor_type;location;lat;lon;timestamp;pressure;altitude;pressure_sealevel;temperature;humidity
64115;BME280;62188;35.640;139.748;2023-08-21T00:00:51;101113.76;;;32.36;40.82
64115;BME280;62188;35.640;139.748;2023-08-21T00:03:16;101117.87;;;32.42;40.99
64115;BME280;62188;35.640;139.748;2023-08-21T00:05:41;101117.19;;;32.69;40.85
64115;BME280;62188;35.640;139.748;2023-08-21T00:08:07;101116.06;;;32.59;40.55
64115;BME280;62188;35.640;139.748;2023-08-21T00:10:32;101113.31;;;32.92;40.34
64115;BME280;62188;35.640;139.748;2023-08-21T00:12:57;101110.89;;;32.52;40.68
64115;BME280;62188;35.640;139.748;2023-08-21T00:15:22;101104.25;;;32.38;41.26
64115;BME280;62188;35.640;139.748;2023-08-21T00:17:47;101103.63;;;32.72;40.84
64115;BME280;62188;35.640;139.748;2023-08-21T00:20:13;101097.47;;;32.69;41.05
64115;BME280;62188;35.640;139.748;2023-08-21T00:22:38;101101.12;;;32.70;40.63
64115;BME280;62188;35.640;139.748;2023-08-21T00:25:03;101099.56;;;32.75;40.73
64115;BME280;62188;35.640;139.748;2023-08-21T00:27:28;101101.51;;;32.95;40.38
64115;BME280;62188;35.640;139.748;2023-08-21T00:29:54;101102.29;;;32.75;40.47
64115;BME280;62188;35.640;139.748;2023-08-21T00:32:19;101103.87;;;32.29;40.94
64115;BME280;62188;35.640;139.748;2023-08-21T00:34:44;101104.06;;;32.81;40.85
64115;BME280;62188;35.640;139.748;2023-08-21T00:37:09;101103.86;;;32.83;39.70
64115;BME280;62188;35.640;139.748;2023-08-21T00:39:35;101100.98;;;32.98;39.22
64115;BME280;62188;35.640;139.748;2023-08-21T00:42:00;101099.78;;;32.93;39.57
64115;BME280;62188;35.640;139.748;2023-08-21T00:44:25;101096.18;;;33.31;39.17
64115;BME280;62188;35.640;139.748;2023-08-21T00:46:50;101096.71;;;33.46;40.13
64115;BME280;62188;35.640;139.748;2023-08-21T00:49:16;101094.87;;;32.96;40.90
64115;BME280;62188;35.640;139.748;2023-08-21T00:51:40;101094.63;;;33.10;40.80
64115;BME280;62188;35.640;139.748;2023-08-21T00:54:06;101092.35;;;32.87;41.49
64115;BME280;62188;35.640;139.748;2023-08-21T00:56:31;101088.64;;;32.30;42.93
64115;BME280;62188;35.640;139.748;2023-08-21T00:58:56;101088.22;;;31.85;43.67
64115;BME280;62188;35.640;139.748;2023-08-21T01:01:23;101091.48;;;31.77;44.47
64115;BME280;62188;35.640;139.748;2023-08-21T01:03:46;101083.55;;;32.26;44.00
64115;BME280;62188;35.640;139.748;2023-08-21T01:06:12;101079.79;;;32.13;43.69
64115;BME280;62188;35.640;139.748;2023-08-21T01:08:43;101080.79;;;32.07;43.45
64115;BME280;62188;35.640;139.748;2023-08-21T01:11:08;101077.59;;;32.12;43.89
64115;BME280;62188;35.640;139.748;2023-08-21T01:13:37;101078.07;;;31.97;44.12
64115;BME280;62188;35.640;139.748;2023-08-21T01:15:55;101077.82;;;31.81;44.34
64115;BME280;62188;35.640;139.748;2023-08-21T01:18:19;101072.39;;;31.78;44.25
64115;BME280;62188;35.640;139.748;2023-08-21T01:20:43;101073.42;;;32.09;43.87
64115;BME280;62188;35.640;139.748;2023-08-21T01:23:09;101071.42;;;32.23;43.72
64115;BME280;62188;35.640;139.748;2023-08-21T01:25:34;101069.89;;;32.38;43.41
64115;BME280;62188;35.640;139.748;2023-08-21T01:27:59;101063.60;;;32.05;43.53
64115;BME280;62188;35.640;139.748;2023-08-21T01:30:24;101063.18;;;31.69;44.46
64115;BME280;62188;35.640;139.748;2023-08-21T01:32:56;101059.21;;;32.00;43.89
64115;BME280;62188;35.640;139.748;2023-08-21T01:35:15;101060.03;;;31.94;44.43
64115;BME280;62188;35.640;139.748;2023-08-21T01:37:40;101055.09;;;32.36;43.80
64115;BME280;62188;35.640;139.748;2023-08-21T01:40:06;101054.46;;;32.47;42.81
64115;BME280;62188;35.640;139.748;2023-08-21T01:42:30;101057.03;;;32.57;42.18
64115;BME280;62188;35.640;139.748;2023-08-21T01:44:56;101054.22;;;32.42;42.99
64115;BME280;62188;35.640;139.748;2023-08-21T01:47:21;101053.49;;;32.49;42.85
64115;BME280;62188;35.640;139.748;2023-08-21T01:49:46;101058.29;;;32.59;42.41
64115;BME280;62188;35.640;139.748;2023-08-21T01:52:11;101055.67;;;33.01;41.96
64115;BME280;62188;35.640;139.748;2023-08-21T01:54:37;101053.35;;;32.49;42.04
64115;BME280;62188;35.640;139.748;2023-08-21T01:57:02;101048.82;;;32.83;41.44
64115;BME280;62188;35.640;139.748;2023-08-21T01:59:27;101051.13;;;32.35;41.95
64115;BME280;62188;35.640;139.748;2023-08-21T02:01:52;101047.08;;;32.82;41.40
64115;BME280;62188;35.640;139.748;2023-08-21T02:04:17;101045.36;;;32.90;41.21
64115;BME280;62188;35.640;139.748;2023-08-21T02:06:43;101039.00;;;33.19;40.90
64115;BME280;62188;35.640;139.748;2023-08-21T02:09:08;101040.18;;;33.29;40.68
64115;BME280;62188;35.640;139.748;2023-08-21T02:11:33;101036.15;;;32.92;40.84
64115;BME280;62188;35.640;139.748;2023-08-21T02:13:58;101035.07;;;33.55;40.05
64115;BME280;62188;35.640;139.748;2023-08-21T02:16:24;101027.93;;;33.46;40.21
64115;BME280;62188;35.640;139.748;2023-08-21T02:18:49;101030.89;;;33.24;40.33
64115;BME280;62188;35.640;139.748;2023-08-21T02:21:15;101028.04;;;33.30;39.84
64115;BME280;62188;35.640;139.748;2023-08-21T02:23:40;101029.19;;;33.44;39.40
64115;BME280;62188;35.640;139.748;2023-08-21T02:26:05;101025.96;;;33.68;38.91
64115;BME280;62188;35.640;139.748;2023-08-21T02:28:31;101027.94;;;33.83;38.92
64115;BME280;62188;35.640;139.748;2023-08-21T02:30:56;101026.60;;;33.57;39.19
64115;BME280;62188;35.640;139.748;2023-08-21T02:33:21;101023.95;;;33.76;38.82
64115;BME280;62188;35.640;139.748;2023-08-21T02:35:47;101021.75;;;33.77;38.67
64115;BME280;62188;35.640;139.748;2023-08-21T02:38:12;101024.40;;;33.33;39.60
64115;BME280;62188;35.640;139.748;2023-08-21T02:40:37;101026.90;;;33.21;39.68
64115;BME280;62188;35.640;139.748;2023-08-21T02:43:02;101023.11;;;33.45;39.47
64115;BME280;62188;35.640;139.748;2023-08-21T02:45:27;101018.37;;;33.35;40.26
64115;BME280;62188;35.640;139.748;2023-08-21T02:47:53;101018.34;;;33.34;40.09
64115;BME280;62188;35.640;139.748;2023-08-21T02:50:18;101013.62;;;33.85;39.82
64115;BME280;62188;35.640;139.748;2023-08-21T02:52:43;101012.38;;;33.14;40.51
64115;BME280;62188;35.640;139.748;2023-08-21T02:55:09;101010.51;;;33.42;39.85
64115;BME280;62188;35.640;139.748;2023-08-21T02:57:34;101010.27;;;33.36;40.40
64115;BME280;62188;35.640;139.748;2023-08-21T03:00:00;101009.76;;;33.70;39.61
64115;BME280;62188;35.640;139.748;2023-08-21T03:02:24;101014.38;;;33.58;39.37
64115;BME280;62188;35.640;139.748;2023-08-21T03:04:50;101009.70;;;33.45;39.57
64115;BME280;62188;35.640;139.748;2023-08-21T03:07:15;101008.32;;;33.75;39.71
64115;BME280;62188;35.640;139.748;2023-08-21T03:09:41;101001.86;;;34.06;39.34
64115;BME280;62188;35.640;139.748;2023-08-21T03:12:06;101000.29;;;33.85;40.20
64115;BME280;62188;35.640;139.748;2023-08-21T03:14:31;100998.49;;;33.70;40.19
64115;BME280;62188;35.640;139.748;2023-08-21T03:16:56;100991.61;;;33.99;39.76
64115;BME280;62188;35.640;139.748;2023-08-21T03:19:21;100995.73;;;33.80;40.22
64115;BME280;62188;35.640;139.748;2023-08-21T03:21:46;100991.79;;;33.66;40.39
64115;BME280;62188;35.640;139.748;2023-08-21T03:24:12;100989.41;;;33.68;40.38
64115;BME280;62188;35.640;139.748;2023-08-21T03:26:36;100992.52;;;33.74;40.38
64115;BME280;62188;35.640;139.748;2023-08-21T03:29:02;100990.59;;;32.99;41.50
64115;BME280;62188;35.640;139.748;2023-08-21T03:31:27;100985.28;;;33.26;41.55
64115;BME280;62188;35.640;139.748;2023-08-21T03:33:52;100981.85;;;33.27;41.55
64115;BME280;62188;35.640;139.748;2023-08-21T03:36:18;100977.27;;;33.35;41.59
64115;BME280;62188;35.640;139.748;2023-08-21T03:38:43;100978.24;;;33.17;41.85
64115;BME280;62188;35.640;139.748;2023-08-21T03:41:08;100973.44;;;33.02;42.03
64115;BME280;62188;35.640;139.748;2023-08-21T03:43:33;100976.49;;;32.78;42.15
64115;BME280;62188;35.640;139.748;2023-08-21T03:45:58;100973.24;;;33.02;41.89
64115;BME280;62188;35.640;139.748;2023-08-21T03:48:23;100972.68;;;32.95;42.24
64115;BME280;62188;35.640;139.748;2023-08-21T03:50:49;100970.12;;;32.82;42.23
64115;BME280;62188;35.640;139.748;2023-08-21T03:53:14;100968.45;;;33.07;41.70
64115;BME280;62188;35.640;139.748;2023-08-21T03:55:39;100974.72;;;33.40;41.26
64115;BME280;62188;35.640;139.748;2023-08-21T03:58:04;100970.44;;;33.27;41.41
64115;BME280;62188;35.640;139.748;2023-08-21T04:00:30;100970.86;;;32.92;41.58
64115;BME280;62188;35.640;139.748;2023-08-21T04:02:55;100966.05;;;33.47;41.52
64115;BME280;62188;35.640;139.748;2023-08-21T04:05:20;100963.03;;;33.24;42.42
64115;BME280;62188;35.640;139.748;2023-08-21T04:07:46;100962.32;;;33.25;41.89
64115;BME280;62188;35.640;139.748;2023-08-21T04:10:11;100956.51;;;33.33;42.31
64115;BME280;62188;35.640;139.748;2023-08-21T04:12:36;100958.24;;;32.94;42.24
64115;BME280;62188;35.640;139.748;2023-08-21T04:15:01;100956.45;;;32.98;41.99
64115;BME280;62188;35.640;139.748;2023-08-21T04:17:26;100958.59;;;33.29;41.92
64115;BME280;62188;35.640;139.748;2023-08-21T04:19:52;100952.02;;;33.00;42.57
64115;BME280;62188;35.640;139.748;2023-08-21T04:22:17;100955.45;;;32.91;42.79
64115;BME280;62188;35.640;139.748;2023-08-21T04:24:42;100954.89;;;32.79;42.80
64115;BME280;62188;35.640;139.748;2023-08-21T04:27:07;100945.86;;;32.58;43.27
64115;BME280;62188;35.640;139.748;2023-08-21T04:29:33;100939.12;;;32.92;42.97
64115;BME280;62188;35.640;139.748;2023-08-21T04:31:58;100934.59;;;33.26;42.41
64115;BME280;62188;35.640;139.748;2023-08-21T04:34:23;100937.34;;;32.83;43.31
64115;BME280;62188;35.640;139.748;2023-08-21T04:36:48;100947.43;;;33.35;42.67
64115;BME280;62188;35.640;139.748;2023-08-21T04:39:13;100944.06;;;32.76;43.13
64115;BME280;62188;35.640;139.748;2023-08-21T04:41:41;100941.98;;;32.69;43.16
64115;BME280;62188;35.640;139.748;2023-08-21T04:44:03;100946.93;;;32.19;43.62
64115;BME280;62188;35.640;139.748;2023-08-21T04:46:28;100944.02;;;32.53;42.78
64115;BME280;62188;35.640;139.748;2023-08-21T04:48:54;100942.65;;;32.56;43.11
64115;BME280;62188;35.640;139.748;2023-08-21T04:51:19;100938.13;;;32.37;43.75
64115;BME280;62188;35.640;139.748;2023-08-21T04:53:44;100939.72;;;32.12;43.97
64115;BME280;62188;35.640;139.748;2023-08-21T04:56:10;100930.43;;;32.40;43.39
64115;BME280;62188;35.640;139.748;2023-08-21T04:58:35;100929.84;;;32.27;43.31
64115;BME280;62188;35.640;139.748;2023-08-21T05:01:00;100932.37;;;31.88;43.64
64115;BME280;62188;35.640;139.748;2023-08-21T05:03:26;100925.51;;;32.20;43.08
64115;BME280;62188;35.640;139.748;2023-08-21T05:05:56;100923.19;;;32.01;43.37
64115;BME280;62188;35.640;139.748;2023-08-21T05:08:16;100923.46;;;31.60;44.24
64115;BME280;62188;35.640;139.748;2023-08-21T05:10:41;100930.90;;;31.91;43.59
64115;BME280;62188;35.640;139.748;2023-08-21T05:13:06;100929.31;;;31.86;43.58
64115;BME280;62188;35.640;139.748;2023-08-21T05:15:31;100926.88;;;31.93;43.19
64115;BME280;62188;35.640;139.748;2023-08-21T05:17:57;100924.40;;;32.33;42.55
64115;BME280;62188;35.640;139.748;2023-08-21T05:20:22;100921.85;;;31.83;42.43
64115;BME280;62188;35.640;139.748;2023-08-21T05:22:47;100922.29;;;31.40;43.08
64115;BME280;62188;35.640;139.748;2023-08-21T05:25:13;100915.68;;;31.75;42.81
64115;BME280;62188;35.640;139.748;2023-08-21T05:27:37;100912.76;;;31.52;43.07
64115;BME280;62188;35.640;139.748;2023-08-21T05:30:03;100917.58;;;32.01;43.09
64115;BME280;62188;35.640;139.748;2023-08-21T05:32:28;100914.40;;;31.85;43.22
64115;BME280;62188;35.640;139.748;2023-08-21T05:34:53;100928.38;;;31.75;42.53
64115;BME280;62188;35.640;139.748;2023-08-21T05:37:18;100918.38;;;31.37;42.81
64115;BME280;62188;35.640;139.748;2023-08-21T05:39:43;100914.10;;;31.60;42.79
64115;BME280;62188;35.640;139.748;2023-08-21T05:42:09;100914.72;;;31.51;42.59
64115;BME280;62188;35.640;139.748;2023-08-21T05:44:34;100912.41;;;31.74;42.21
64115;BME280;62188;35.640;139.748;2023-08-21T05:46:59;100907.52;;;31.83;42.51
64115;BME280;62188;35.640;139.748;2023-08-21T05:49:24;100905.97;;;31.87;42.15
64115;BME280;62188;35.640;139.748;2023-08-21T05:51:49;100912.42;;;31.75;42.48
64115;BME280;62188;35.640;139.748;2023-08-21T05:54:15;100912.19;;;31.64;42.65
64115;BME280;62188;35.640;139.748;2023-08-21T05:56:40;100910.62;;;31.63;42.71
64115;BME280;62188;35.640;139.748;2023-08-21T05:59:05;100905.74;;;32.33;41.70
64115;BME280;62188;35.640;139.748;2023-08-21T06:01:30;100904.49;;;31.62;42.38
64115;BME280;62188;35.640;139.748;2023-08-21T06:03:56;100905.92;;;31.53;42.43
64115;BME280;62188;35.640;139.748;2023-08-21T06:06:21;100915.45;;;31.42;43.31
64115;BME280;62188;35.640;139.748;2023-08-21T06:08:46;100907.26;;;31.63;43.14
64115;BME280;62188;35.640;139.748;2023-08-21T06:11:11;100904.64;;;31.63;43.50
64115;BME280;62188;35.640;139.748;2023-08-21T06:13:36;100900.64;;;31.91;43.38
64115;BME280;62188;35.640;139.748;2023-08-21T06:16:01;100900.83;;;31.48;44.88
64115;BME280;62188;35.640;139.748;2023-08-21T06:18:27;100895.92;;;31.44;45.15
64115;BME280;62188;35.640;139.748;2023-08-21T06:20:52;100894.49;;;31.66;44.98
64115;BME280;62188;35.640;139.748;2023-08-21T06:23:18;100891.56;;;31.63;44.89
64115;BME280;62188;35.640;139.748;2023-08-21T06:25:43;100898.89;;;31.33;45.33
64115;BME280;62188;35.640;139.748;2023-08-21T06:28:08;100895.37;;;31.69;44.85
64115;BME280;62188;35.640;139.748;2023-08-21T06:30:33;100901.25;;;31.75;45.29
64115;BME280;62188;35.640;139.748;2023-08-21T06:32:58;100896.29;;;31.22;46.26
64115;BME280;62188;35.640;139.748;2023-08-21T06:35:24;100901.32;;;30.94;46.38
64115;BME280;62188;35.640;139.748;2023-08-21T06:37:49;100899.45;;;31.04;45.43
64115;BME280;62188;35.640;139.748;2023-08-21T06:40:15;100892.94;;;31.55;46.05
64115;BME280;62188;35.640;139.748;2023-08-21T06:42:40;100892.02;;;31.49;46.63
64115;BME280;62188;35.640;139.748;2023-08-21T06:45:06;100899.38;;;31.14;46.12
64115;BME280;62188;35.640;139.748;2023-08-21T06:47:30;100901.18;;;31.26;45.86
64115;BME280;62188;35.640;139.748;2023-08-21T06:49:55;100901.62;;;30.98;46.18
64115;BME280;62188;35.640;139.748;2023-08-21T06:52:20;100898.67;;;31.38;46.21
64115;BME280;62188;35.640;139.748;2023-08-21T06:54:47;100897.88;;;31.48;46.46
64115;BME280;62188;35.640;139.748;2023-08-21T06:57:11;100895.63;;;31.44;46.97
64115;BME280;62188;35.640;139.748;2023-08-21T06:59:37;100889.66;;;31.95;46.42
64115;BME280;62188;35.640;139.748;2023-08-21T07:02:01;100889.32;;;31.50;46.72
64115;BME280;62188;35.640;139.748;2023-08-21T07:04:27;100891.81;;;31.23;47.83
64115;BME280;62188;35.640;139.748;2023-08-21T07:06:52;100879.22;;;31.10;47.58
64115;BME280;62188;35.640;139.748;2023-08-21T07:09:18;100878.64;;;31.04;48.40
64115;BME280;62188;35.640;139.748;2023-08-21T07:11:42;100876.69;;;31.12;48.30
64115;BME280;62188;35.640;139.748;2023-08-21T07:14:07;100887.28;;;31.26;48.55
64115;BME280;62188;35.640;139.748;2023-08-21T07:16:33;100879.76;;;31.32;48.75
64115;BME280;62188;35.640;139.748;2023-08-21T07:18:58;100883.59;;;31.21;48.70
64115;BME280;62188;35.640;139.748;2023-08-21T07:21:24;100889.41;;;31.02;48.84
64115;BME280;62188;35.640;139.748;2023-08-21T07:23:48;100882.62;;;31.09;48.63
64115;BME280;62188;35.640;139.748;2023-08-21T07:26:14;100886.25;;;31.31;48.76
64115;BME280;62188;35.640;139.748;2023-08-21T07:28:39;100889.25;;;30.92;49.33
64115;BME280;62188;35.640;139.748;2023-08-21T07:31:04;100896.64;;;31.03;49.63
64115;BME280;62188;35.640;139.748;2023-08-21T07:33:29;100902.21;;;30.72;50.13
64115;BME280;62188;35.640;139.748;2023-08-21T07:36:02;100905.18;;;30.89;50.13
64115;BME280;62188;35.640;139.748;2023-08-21T07:38:20;100903.48;;;31.03;49.74
64115;BME280;62188;35.640;139.748;2023-08-21T07:40:45;100906.66;;;31.10;49.17
64115;BME280;62188;35.640;139.748;2023-08-21T07:43:10;100912.41;;;31.45;48.68
64115;BME280;62188;35.640;139.748;2023-08-21T07:45:38;100918.81;;;30.88;48.88
64115;BME280;62188;35.640;139.748;2023-08-21T07:48:01;100934.05;;;30.75;49.23
64115;BME280;62188;35.640;139.748;2023-08-21T07:50:26;100934.01;;;30.71;49.76
64115;BME280;62188;35.640;139.748;2023-08-21T07:52:51;100930.54;;;30.45;50.93
64115;BME280;62188;35.640;139.748;2023-08-21T07:55:16;100927.77;;;30.41;50.76
64115;BME280;62188;35.640;139.748;2023-08-21T07:57:42;100932.97;;;30.96;49.76
64115;BME280;62188;35.640;139.748;2023-08-21T08:00:08;100933.70;;;30.61;50.01
64115;BME280;62188;35.640;139.748;2023-08-21T08:02:32;100936.37;;;30.64;49.91
64115;BME280;62188;35.640;139.748;2023-08-21T08:04:57;100935.01;;;30.78;50.08
64115;BME280;62188;35.640;139.748;2023-08-21T08:07:23;100934.28;;;30.56;50.29
64115;BME280;62188;35.640;139.748;2023-08-21T08:09:49;100936.66;;;30.17;50.69
64115;BME280;62188;35.640;139.748;2023-08-21T08:12:13;100935.22;;;31.02;49.70
64115;BME280;62188;35.640;139.748;2023-08-21T08:14:38;100939.46;;;30.87;49.48
64115;BME280;62188;35.640;139.748;2023-08-21T08:17:04;100939.37;;;30.58;50.35
64115;BME280;62188;35.640;139.748;2023-08-21T08:19:30;100941.50;;;30.69;50.12
64115;BME280;62188;35.640;139.748;2023-08-21T08:21:54;100940.59;;;30.47;49.98
64115;BME280;62188;35.640;139.748;2023-08-21T08:24:19;100931.68;;;31.07;49.24
64115;BME280;62188;35.640;139.748;2023-08-21T08:26:45;100938.28;;;30.92;49.09
64115;BME280;62188;35.640;139.748;2023-08-21T08:29:10;100942.62;;;30.87;49.66
64115;BME280;62188;35.640;139.748;2023-08-21T08:31:35;100953.99;;;31.18;49.17
64115;BME280;62188;35.640;139.748;2023-08-21T08:34:01;100951.39;;;30.37;50.22
64115;BME280;62188;35.640;139.748;2023-08-21T08:36:25;100951.69;;;30.62;49.63
64115;BME280;62188;35.640;139.748;2023-08-21T08:38:51;100954.13;;;30.95;50.02
64115;BME280;62188;35.640;139.748;2023-08-21T08:41:25;100953.56;;;30.74;50.28
64115;BME280;62188;35.640;139.748;2023-08-21T08:43:41;100950.15;;;30.21;50.89
64115;BME280;62188;35.640;139.748;2023-08-21T08:46:08;100956.63;;;30.55;50.99
64115;BME280;62188;35.640;139.748;2023-08-21T08:48:32;100959.66;;;30.65;50.13
64115;BME280;62188;35.640;139.748;2023-08-21T08:50:57;100956.37;;;30.46;50.65
64115;BME280;62188;35.640;139.748;2023-08-21T08:53:24;100960.47;;;30.39;50.56
64115;BME280;62188;35.640;139.748;2023-08-21T08:55:48;100958.52;;;30.18;51.52
64115;BME280;62188;35.640;139.748;2023-08-21T08:58:13;100968.49;;;30.77;51.15
64115;BME280;62188;35.640;139.748;2023-08-21T09:00:39;100968.88;;;30.34;51.66
64115;BME280;62188;35.640;139.748;2023-08-21T09:03:04;100976.51;;;30.28;51.56
64115;BME280;62188;35.640;139.748;2023-08-21T09:05:28;100977.75;;;30.55;51.34
64115;BME280;62188;35.640;139.748;2023-08-21T09:08:03;100979.73;;;30.35;51.48
64115;BME280;62188;35.640;139.748;2023-08-21T09:10:20;100988.70;;;30.05;51.70
64115;BME280;62188;35.640;139.748;2023-08-21T09:12:47;100988.50;;;30.45;51.14
64115;BME280;62188;35.640;139.748;2023-08-21T09:15:10;100994.28;;;29.94;51.71
64115;BME280;62188;35.640;139.748;2023-08-21T09:17:35;101000.79;;;29.93;51.52
64115;BME280;62188;35.640;139.748;2023-08-21T09:20:05;101007.17;;;30.26;51.65
64115;BME280;62188;35.640;139.748;2023-08-21T09:22:27;101004.01;;;30.44;50.67
64115;BME280;62188;35.640;139.748;2023-08-21T09:25:00;101006.25;;;30.22;51.33
64115;BME280;62188;35.640;139.748;2023-08-21T09:27:18;101007.39;;;30.42;51.55
64115;BME280;62188;35.640;139.748;2023-08-21T09:29:42;101007.98;;;29.94;52.71
64115;BME280;62188;35.640;139.748;2023-08-21T09:32:07;101008.38;;;30.26;51.82
64115;BME280;62188;35.640;139.748;2023-08-21T09:34:35;101014.91;;;30.20;51.76
64115;BME280;62188;35.640;139.748;2023-08-21T09:36:58;101015.21;;;30.48;51.63
64115;BME280;62188;35.640;139.748;2023-08-21T09:39:23;101007.49;;;29.98;52.57
64115;BME280;62188;35.640;139.748;2023-08-21T09:41:55;101005.92;;;30.24;52.11
64115;BME280;62188;35.640;139.748;2023-08-21T09:44:13;101011.92;;;30.55;51.93
64115;BME280;62188;35.640;139.748;2023-08-21T09:46:38;101009.14;;;30.35;52.15
64115;BME280;62188;35.640;139.748;2023-08-21T09:49:04;101018.03;;;30.04;51.80
64115;BME280;62188;35.640;139.748;2023-08-21T09:51:29;101020.39;;;30.49;51.69
64115;BME280;62188;35.640;139.748;2023-08-21T09:53:55;101020.81;;;30.16;52.45
64115;BME280;62188;35.640;139.748;2023-08-21T09:56:20;101022.29;;;30.14;51.76
64115;BME280;62188;35.640;139.748;2023-08-21T09:58:44;101027.65;;;30.41;51.44
64115;BME280;62188;35.640;139.748;2023-08-21T10:01:10;101032.70;;;30.35;51.41
64115;BME280;62188;35.640;139.748;2023-08-21T10:03:36;101041.12;;;30.35;51.52
64115;BME280;62188;35.640;139.748;2023-08-21T10:06:01;101048.87;;;30.22;51.87
64115;BME280;62188;35.640;139.748;2023-08-21T10:08:26;101050.99;;;30.01;52.28
64115;BME280;62188;35.640;139.748;2023-08-21T10:10:50;101047.86;;;30.08;52.42
64115;BME280;62188;35.640;139.748;2023-08-21T10:13:16;101052.48;;;30.56;51.65
64115;BME280;62188;35.640;139.748;2023-08-21T10:15:41;101058.41;;;30.13;52.35
64115;BME280;62188;35.640;139.748;2023-08-21T10:18:19;101058.86;;;29.80;52.73
64115;BME280;62188;35.640;139.748;2023-08-21T10:20:32;101057.18;;;29.82;52.81
64115;BME280;62188;35.640;139.748;2023-08-21T10:23:01;101050.09;;;30.10;52.12
64115;BME280;62188;35.640;139.748;2023-08-21T10:25:23;101053.30;;;30.37;51.84
64115;BME280;62188;35.640;139.748;2023-08-21T10:27:50;101057.29;;;30.06;52.30
64115;BME280;62188;35.640;139.748;2023-08-21T10:30:15;101065.95;;;29.91;52.86
64115;BME280;62188;35.640;139.748;2023-08-21T10:32:45;101069.77;;;30.12;52.34
64115;BME280;62188;35.640;139.748;2023-08-21T10:35:03;101066.32;;;29.26;53.55
64115;BME280;62188;35.640;139.748;2023-08-21T10:37:28;101069.19;;;29.13;54.75
64115;BME280;62188;35.640;139.748;2023-08-21T10:39:58;101075.57;;;29.60;54.06
64115;BME280;62188;35.640;139.748;2023-08-21T10:42:19;101086.92;;;29.72;53.83
64115;BME280;62188;35.640;139.748;2023-08-21T10:44:51;101090.29;;;29.78;53.78
64115;BME280;62188;35.640;139.748;2023-08-21T10:47:15;101092.62;;;29.76;54.05
64115;BME280;62188;35.640;139.748;2023-08-21T10:49:34;101091.70;;;29.85;54.07
64115;BME280;62188;35.640;139.748;2023-08-21T10:52:00;101087.84;;;29.30;54.21
64115;BME280;62188;35.640;139.748;2023-08-21T10:54:25;101092.60;;;29.99;53.99
64115;BME280;62188;35.640;139.748;2023-08-21T10:56:50;101096.67;;;29.73;53.89
64115;BME280;62188;35.640;139.748;2023-08-21T10:59:16;101097.73;;;29.94;53.30
64115;BME280;62188;35.640;139.748;2023-08-21T11:01:45;101102.59;;;29.86;52.42
64115;BME280;62188;35.640;139.748;2023-08-21T11:04:06;101101.77;;;29.95;52.44
64115;BME280;62188;35.640;139.748;2023-08-21T11:06:31;101105.28;;;29.97;52.54
64115;BME280;62188;35.640;139.748;2023-08-21T11:08:57;101104.45;;;29.79;52.96
64115;BME280;62188;35.640;139.748;2023-08-21T11:11:22;101104.86;;;29.62;53.70
64115;BME280;62188;35.640;139.748;2023-08-21T11:13:53;101106.02;;;29.78;53.47
64115;BME280;62188;35.640;139.748;2023-08-21T11:16:12;101110.27;;;29.61;54.45
64115;BME280;62188;35.640;139.748;2023-08-21T11:18:38;101114.96;;;29.96;53.66
64115;BME280;62188;35.640;139.748;2023-08-21T11:21:07;101126.03;;;29.47;53.74
64115;BME280;62188;35.640;139.748;2023-08-21T11:23:33;101130.54;;;29.64;54.86
64115;BME280;62188;35.640;139.748;2023-08-21T11:25:54;101134.37;;;29.30;55.34
64115;BME280;62188;35.640;139.748;2023-08-21T11:28:18;101136.67;;;29.55;54.07
64115;BME280;62188;35.640;139.748;2023-08-21T11:30:44;101135.05;;;29.40;54.70
64115;BME280;62188;35.640;139.748;2023-08-21T11:33:10;101132.64;;;29.18;54.90
64115;BME280;62188;35.640;139.748;2023-08-21T11:35:34;101132.13;;;29.68;54.29
64115;BME280;62188;35.640;139.748;2023-08-21T11:37:59;101138.51;;;29.44;53.95
64115;BME280;62188;35.640;139.748;2023-08-21T11:40:25;101137.80;;;29.55;54.77
64115;BME280;62188;35.640;139.748;2023-08-21T11:42:52;101137.53;;;29.22;55.09
64115;BME280;62188;35.640;139.748;2023-08-21T11:45:15;101139.96;;;29.70;55.06
64115;BME280;62188;35.640;139.748;2023-08-21T11:47:40;101140.49;;;29.52;55.45
64115;BME280;62188;35.640;139.748;2023-08-21T11:50:07;101151.13;;;29.45;55.84
64115;BME280;62188;35.640;139.748;2023-08-21T11:52:31;101154.91;;;29.39;56.20
64115;BME280;62188;35.640;139.748;2023-08-21T11:54:56;101151.14;;;29.49;55.25
64115;BME280;62188;35.640;139.748;2023-08-21T11:57:22;101144.07;;;29.51;55.95
64115;BME280;62188;35.640;139.748;2023-08-21T11:59:51;101147.11;;;29.63;55.71
64115;BME280;62188;35.640;139.748;2023-08-21T12:02:17;101149.86;;;29.44;55.58
64115;BME280;62188;35.640;139.748;2023-08-21T12:04:37;101154.91;;;29.57;54.82
64115;BME280;62188;35.640;139.748;2023-08-21T12:07:03;101154.81;;;29.28;55.54
64115;BME280;62188;35.640;139.748;2023-08-21T12:09:28;101149.79;;;29.13;55.06
64115;BME280;62188;35.640;139.748;2023-08-21T12:11:53;101149.74;;;29.57;55.38
64115;BME280;62188;35.640;139.748;2023-08-21T12:14:18;101149.59;;;29.19;56.13
64115;BME280;62188;35.640;139.748;2023-08-21T12:16:44;101147.34;;;29.05;55.92
64115;BME280;62188;35.640;139.748;2023-08-21T12:19:09;101150.57;;;28.84;56.33